createdAt,value
2017-07-19T00:00:01.094Z,21.0
2017-07-19T00:01:03.255Z,20.9
2017-07-19T00:02:05.438Z,21.0
2017-07-19T00:03:07.592Z,20.9
2017-07-19T00:04:09.758Z,20.9
2017-07-19T00:05:11.951Z,20.9
2017-07-19T00:06:14.092Z,21.0
2017-07-19T00:07:16.270Z,20.9
2017-07-19T00:08:18.498Z,20.8
2017-07-19T00:09:20.658Z,20.8
2017-07-19T00:10:22.898Z,20.8
2017-07-19T00:11:25.060Z,20.8
2017-07-19T00:12:27.284Z,20.7
2017-07-19T00:13:29.451Z,20.7
2017-07-19T00:14:31.644Z,20.7
2017-07-19T00:15:33.898Z,20.7
2017-07-19T00:16:36.076Z,20.8
2017-07-19T00:17:38.270Z,20.7
2017-07-19T00:18:40.461Z,20.7
2017-07-19T00:19:42.620Z,20.7
2017-07-19T00:20:44.817Z,20.8
2017-07-19T00:21:46.996Z,20.7
2017-07-19T00:22:49.177Z,20.7
2017-07-19T00:23:51.431Z,20.7
2017-07-19T00:24:53.525Z,20.6
2017-07-19T00:25:55.705Z,20.7
2017-07-19T00:26:57.807Z,20.6
2017-07-19T00:27:59.965Z,20.6
2017-07-19T00:29:02.118Z,20.7
2017-07-19T00:30:04.242Z,20.7
2017-07-19T00:31:06.377Z,20.6
2017-07-19T00:32:08.384Z,20.6
2017-07-19T00:33:10.575Z,20.5
2017-07-19T00:34:12.820Z,20.6
2017-07-19T00:35:14.999Z,20.6
2017-07-19T00:36:17.276Z,20.6
2017-07-19T00:37:19.458Z,20.5
2017-07-19T00:38:21.663Z,20.5
2017-07-19T00:39:23.815Z,20.4
2017-07-19T00:40:26.034Z,20.4
2017-07-19T00:41:28.153Z,20.5
2017-07-19T00:42:30.135Z,20.4
2017-07-19T00:43:32.301Z,20.4
2017-07-19T00:44:34.442Z,20.4
2017-07-19T00:45:36.514Z,20.4
2017-07-19T00:46:38.650Z,20.3
2017-07-19T00:47:40.898Z,20.3
2017-07-19T00:48:43.066Z,20.3
2017-07-19T00:49:45.184Z,20.3
2017-07-19T00:50:47.377Z,20.3
2017-07-19T00:51:49.596Z,20.3
2017-07-19T00:52:51.723Z,20.3
2017-07-19T00:53:53.940Z,20.3
2017-07-19T00:54:56.053Z,20.3
2017-07-19T00:55:58.262Z,20.2
2017-07-19T00:57:00.511Z,20.2
2017-07-19T00:58:02.682Z,20.2
2017-07-19T00:59:04.847Z,20.2
2017-07-19T01:00:07.037Z,20.1
2017-07-19T01:01:09.152Z,20.0
2017-07-19T01:02:11.272Z,20.0
2017-07-19T01:03:13.454Z,20.0
2017-07-19T01:04:15.730Z,19.9
2017-07-19T01:05:17.907Z,19.9
2017-07-19T01:06:20.102Z,19.9
2017-07-19T01:07:22.255Z,19.8
2017-07-19T01:08:24.401Z,19.8
2017-07-19T01:09:26.639Z,19.6
2017-07-19T01:10:28.853Z,19.6
2017-07-19T01:11:31.029Z,19.6
2017-07-19T01:12:33.267Z,19.6
2017-07-19T01:13:35.410Z,19.6
2017-07-19T01:14:37.588Z,19.5
2017-07-19T01:15:39.690Z,19.5
2017-07-19T01:16:41.863Z,19.4
2017-07-19T01:17:44.017Z,19.6
2017-07-19T01:18:46.067Z,19.4
2017-07-19T01:19:48.260Z,19.4
2017-07-19T01:20:50.402Z,19.4
2017-07-19T01:21:52.605Z,19.4
2017-07-19T01:22:54.697Z,19.4
2017-07-19T01:23:56.823Z,19.5
2017-07-19T01:24:58.942Z,19.4
2017-07-19T01:26:01.168Z,19.4
2017-07-19T01:27:03.261Z,19.5
2017-07-19T01:28:05.471Z,19.4
2017-07-19T01:29:07.664Z,19.5
2017-07-19T01:30:09.908Z,19.5
2017-07-19T01:31:12.007Z,19.4
2017-07-19T01:32:14.134Z,19.4
2017-07-19T01:33:16.306Z,19.4
2017-07-19T01:34:18.422Z,19.3
2017-07-19T01:35:20.552Z,19.3
2017-07-19T01:36:22.664Z,19.3
2017-07-19T01:37:24.895Z,19.2
2017-07-19T01:38:27.029Z,19.1
2017-07-19T01:39:29.181Z,19.1
2017-07-19T01:40:31.365Z,19.1
2017-07-19T01:41:33.504Z,19.0
2017-07-19T01:42:35.625Z,19.1
2017-07-19T01:43:37.839Z,19.0
2017-07-19T01:44:40.020Z,19.0
2017-07-19T01:45:42.134Z,19.0
2017-07-19T01:46:44.317Z,18.9
2017-07-19T01:47:46.383Z,19.0
2017-07-19T01:48:48.559Z,18.9
2017-07-19T01:49:50.793Z,19.0
2017-07-19T01:50:52.802Z,19.0
2017-07-19T01:51:54.989Z,18.9
2017-07-19T01:52:57.126Z,18.8
2017-07-19T01:53:59.253Z,18.8
2017-07-19T01:55:01.408Z,18.7
2017-07-19T01:56:03.569Z,18.8
2017-07-19T01:57:05.634Z,18.8
2017-07-19T01:58:07.806Z,18.8
2017-07-19T01:59:09.903Z,18.7
2017-07-19T02:00:12.063Z,18.7
2017-07-19T02:01:14.314Z,18.6
2017-07-19T02:02:16.462Z,18.7
2017-07-19T02:03:18.588Z,18.6
2017-07-19T02:04:20.775Z,18.6
2017-07-19T02:05:22.932Z,18.6
2017-07-19T02:06:25.018Z,18.6
2017-07-19T02:07:27.226Z,18.6
2017-07-19T02:08:29.352Z,18.5
2017-07-19T02:09:31.401Z,18.6
2017-07-19T02:10:33.455Z,18.5
2017-07-19T02:11:35.608Z,18.4
2017-07-19T02:12:37.785Z,18.5
2017-07-19T02:13:39.885Z,18.4
2017-07-19T02:14:42.072Z,18.4
2017-07-19T02:15:44.136Z,18.4
2017-07-19T02:16:46.331Z,18.5
2017-07-19T02:17:48.519Z,18.4
2017-07-19T02:18:50.652Z,18.5
2017-07-19T02:19:52.813Z,18.4
2017-07-19T02:20:54.995Z,18.4
2017-07-19T02:21:57.129Z,18.4
2017-07-19T02:22:59.217Z,18.5
2017-07-19T02:24:01.359Z,18.4
2017-07-19T02:25:03.593Z,18.4
2017-07-19T02:26:05.695Z,18.4
2017-07-19T02:27:07.856Z,18.4
2017-07-19T02:28:09.907Z,18.3
2017-07-19T02:29:12.038Z,18.4
2017-07-19T02:30:14.171Z,18.2
2017-07-19T02:31:16.333Z,18.3
2017-07-19T02:32:18.454Z,18.4
2017-07-19T02:33:20.577Z,18.3
2017-07-19T02:34:22.709Z,18.2
2017-07-19T02:35:24.750Z,18.3
2017-07-19T02:36:26.885Z,18.2
2017-07-19T02:37:29.006Z,18.1
2017-07-19T02:38:31.081Z,18.2
2017-07-19T02:39:33.334Z,18.2
2017-07-19T02:40:35.397Z,18.2
2017-07-19T02:41:37.572Z,18.2
2017-07-19T02:42:39.743Z,18.2
2017-07-19T02:43:41.827Z,18.2
2017-07-19T02:44:43.973Z,18.1
2017-07-19T02:45:46.035Z,18.1
2017-07-19T02:46:48.191Z,18.2
2017-07-19T02:47:50.714Z,18.2
2017-07-19T02:48:52.945Z,18.2
2017-07-19T02:49:55.092Z,18.2
2017-07-19T02:50:57.687Z,18.3
2017-07-19T02:52:00.291Z,18.2
2017-07-19T02:53:02.587Z,18.2
2017-07-19T02:54:04.737Z,18.2
2017-07-19T02:55:06.924Z,18.3
2017-07-19T02:56:09.251Z,18.3
2017-07-19T02:57:11.410Z,18.3
2017-07-19T02:58:13.532Z,18.3
2017-07-19T02:59:15.685Z,18.3
2017-07-19T03:00:17.919Z,18.3
2017-07-19T03:01:20.105Z,18.4
2017-07-19T03:02:22.285Z,18.4
2017-07-19T03:03:24.432Z,18.4
2017-07-19T03:04:26.811Z,18.4
2017-07-19T03:05:28.982Z,18.3
2017-07-19T03:06:31.138Z,18.3
2017-07-19T03:07:33.265Z,18.4
2017-07-19T03:08:35.485Z,18.3
2017-07-19T03:09:37.545Z,18.2
2017-07-19T03:10:39.676Z,18.2
2017-07-19T03:11:41.886Z,18.2
2017-07-19T03:12:44.052Z,18.0
2017-07-19T03:13:46.146Z,18.1
2017-07-19T03:14:48.277Z,18.2
2017-07-19T03:15:50.571Z,18.0
2017-07-19T03:16:52.756Z,18.0
2017-07-19T03:17:54.906Z,18.0
2017-07-19T03:18:57.061Z,17.9
2017-07-19T03:19:59.431Z,17.9
2017-07-19T03:21:01.608Z,17.9
2017-07-19T03:22:03.836Z,17.8
2017-07-19T03:23:06.106Z,17.8
2017-07-19T03:24:08.332Z,17.8
2017-07-19T03:25:10.474Z,17.8
2017-07-19T03:26:12.603Z,17.9
2017-07-19T03:27:14.813Z,17.9
2017-07-19T03:28:16.993Z,17.8
2017-07-19T03:29:19.200Z,17.9
2017-07-19T03:30:21.389Z,17.9
2017-07-19T03:31:23.529Z,17.9
2017-07-19T03:32:25.768Z,17.8
2017-07-19T03:33:27.837Z,17.9
2017-07-19T03:34:30.033Z,17.9
2017-07-19T03:35:32.125Z,18.0
2017-07-19T03:36:34.312Z,18.0
2017-07-19T03:37:36.438Z,18.0
2017-07-19T03:38:38.721Z,18.0
2017-07-19T03:39:40.862Z,18.1
2017-07-19T03:40:43.045Z,18.1
2017-07-19T03:41:45.096Z,18.0
2017-07-19T03:42:47.252Z,18.1
2017-07-19T03:43:49.424Z,18.2
2017-07-19T03:44:51.606Z,18.2
2017-07-19T03:45:53.733Z,18.2
2017-07-19T03:46:55.925Z,18.2
2017-07-19T03:47:58.044Z,18.2
2017-07-19T03:49:00.245Z,18.3
2017-07-19T03:50:02.312Z,18.3
2017-07-19T03:51:04.362Z,18.2
2017-07-19T03:52:06.556Z,18.2
2017-07-19T03:53:08.688Z,18.3
2017-07-19T03:54:10.854Z,18.3
2017-07-19T03:55:13.049Z,18.3
2017-07-19T03:56:15.243Z,18.4
2017-07-19T03:57:17.393Z,18.4
2017-07-19T03:58:19.596Z,18.4
2017-07-19T03:59:21.761Z,18.4
2017-07-19T04:00:23.988Z,18.4
2017-07-19T04:01:26.154Z,18.4
2017-07-19T04:02:28.340Z,18.4
2017-07-19T04:03:30.502Z,18.4
2017-07-19T04:04:32.643Z,18.5
2017-07-19T04:05:34.793Z,18.4
2017-07-19T04:06:36.950Z,18.4
2017-07-19T04:07:39.187Z,18.5
2017-07-19T04:08:41.367Z,18.4
2017-07-19T04:09:43.564Z,18.5
2017-07-19T04:10:45.752Z,18.5
2017-07-19T04:11:47.859Z,18.5
2017-07-19T04:12:50.027Z,18.5
2017-07-19T04:13:52.157Z,18.5
2017-07-19T04:14:54.323Z,18.5
2017-07-19T04:15:56.567Z,18.6
2017-07-19T04:16:58.836Z,18.5
2017-07-19T04:18:01.034Z,18.6
2017-07-19T04:19:03.266Z,18.6
2017-07-19T04:20:05.357Z,18.7
2017-07-19T04:21:07.538Z,18.6
2017-07-19T04:22:09.692Z,18.6
2017-07-19T04:23:11.862Z,18.6
2017-07-19T04:24:13.940Z,18.5
2017-07-19T04:25:16.053Z,18.7
2017-07-19T04:26:18.233Z,18.6
2017-07-19T04:27:20.279Z,18.7
2017-07-19T04:28:22.472Z,18.7
2017-07-19T04:29:24.777Z,18.8
2017-07-19T04:30:26.996Z,18.7
2017-07-19T04:31:29.170Z,18.8
2017-07-19T04:32:31.429Z,18.7
2017-07-19T04:33:33.736Z,18.9
2017-07-19T04:34:35.923Z,18.9
2017-07-19T04:35:38.183Z,18.9
2017-07-19T04:36:40.458Z,18.9
2017-07-19T04:37:42.745Z,19.0
2017-07-19T04:38:44.964Z,19.0
2017-07-19T04:39:47.280Z,18.9
2017-07-19T04:40:49.469Z,19.1
2017-07-19T04:41:51.750Z,19.1
2017-07-19T04:42:54.057Z,19.1
2017-07-19T04:43:56.336Z,19.1
2017-07-19T04:44:58.566Z,19.2
2017-07-19T04:46:00.838Z,19.3
2017-07-19T04:47:03.203Z,19.4
2017-07-19T04:48:05.421Z,19.4
2017-07-19T04:49:07.663Z,19.4
2017-07-19T04:50:09.966Z,19.4
2017-07-19T04:51:12.217Z,19.5
2017-07-19T04:52:14.429Z,19.5
2017-07-19T04:53:16.664Z,19.7
2017-07-19T04:54:19.046Z,19.6
2017-07-19T04:55:21.285Z,19.7
2017-07-19T04:56:23.534Z,19.7
2017-07-19T04:57:25.920Z,19.9
2017-07-19T04:58:28.130Z,19.9
2017-07-19T04:59:30.348Z,19.9
2017-07-19T05:00:32.694Z,20.0
2017-07-19T05:01:34.856Z,20.0
2017-07-19T05:02:36.974Z,20.2
2017-07-19T05:03:39.124Z,20.1
2017-07-19T05:04:41.289Z,20.3
2017-07-19T05:05:43.379Z,20.3
2017-07-19T05:06:45.592Z,20.2
2017-07-19T05:07:47.748Z,20.3
2017-07-19T05:08:49.772Z,20.3
2017-07-19T05:09:51.912Z,20.3
2017-07-19T05:10:54.085Z,20.3
2017-07-19T05:11:56.217Z,20.4
2017-07-19T05:12:58.344Z,20.4
2017-07-19T05:14:00.505Z,20.5
2017-07-19T05:15:02.691Z,20.4
2017-07-19T05:16:04.810Z,20.4
2017-07-19T05:17:07.004Z,20.5
2017-07-19T05:18:09.215Z,20.6
2017-07-19T05:19:11.453Z,20.6
2017-07-19T05:20:13.747Z,20.6
2017-07-19T05:21:16.168Z,20.7
2017-07-19T05:22:18.473Z,20.7
2017-07-19T05:23:20.704Z,20.8
2017-07-19T05:24:22.984Z,20.6
2017-07-19T05:25:25.203Z,20.7
2017-07-19T05:26:27.656Z,20.8
2017-07-19T05:27:29.924Z,20.9
2017-07-19T05:28:32.216Z,21.0
2017-07-19T05:29:34.447Z,20.9
2017-07-19T05:30:36.807Z,21.0
2017-07-19T05:31:39.075Z,21.1
2017-07-19T05:32:41.355Z,21.2
2017-07-19T05:33:43.587Z,21.1
2017-07-19T05:34:45.902Z,21.4
2017-07-19T05:35:48.179Z,21.4
2017-07-19T05:36:50.463Z,21.4
2017-07-19T05:37:52.763Z,21.4
2017-07-19T05:38:54.957Z,21.5
2017-07-19T05:39:57.286Z,21.5
2017-07-19T05:40:59.765Z,21.6
2017-07-19T05:42:02.112Z,21.7
2017-07-19T05:43:04.379Z,21.7
2017-07-19T05:44:06.653Z,21.8
2017-07-19T05:45:08.832Z,21.8
2017-07-19T05:46:11.285Z,21.9
2017-07-19T05:47:13.368Z,22.0
2017-07-19T05:48:15.559Z,22.0
2017-07-19T05:49:18.749Z,22.1
2017-07-19T05:50:21.071Z,22.2
2017-07-19T05:51:23.342Z,22.2
2017-07-19T05:52:25.723Z,22.3
2017-07-19T05:53:27.932Z,22.3
2017-07-19T05:54:30.168Z,22.3
2017-07-19T05:55:32.351Z,22.4
2017-07-19T05:56:34.700Z,22.5
2017-07-19T05:57:36.958Z,22.4
2017-07-19T05:58:39.368Z,22.6
2017-07-19T05:59:41.685Z,22.5
2017-07-19T06:00:44.052Z,22.6
2017-07-19T06:01:46.308Z,22.7
2017-07-19T06:02:48.585Z,22.7
2017-07-19T06:03:50.882Z,22.7
2017-07-19T06:04:53.137Z,22.8
2017-07-19T06:05:55.378Z,22.7
2017-07-19T06:06:57.693Z,22.8
2017-07-19T06:08:00.004Z,22.9
2017-07-19T06:09:02.304Z,22.8
2017-07-19T06:10:04.636Z,22.9
2017-07-19T06:11:06.734Z,23.0
2017-07-19T06:12:09.049Z,23.1
2017-07-19T06:13:11.318Z,23.1
2017-07-19T06:14:13.608Z,23.1
2017-07-19T06:15:15.817Z,23.2
2017-07-19T06:16:18.066Z,23.2
2017-07-19T06:17:20.284Z,23.2
2017-07-19T06:18:22.550Z,23.3
2017-07-19T06:19:24.778Z,23.3
2017-07-19T06:20:26.981Z,23.4
2017-07-19T06:21:29.251Z,23.5
2017-07-19T06:22:31.480Z,23.5
2017-07-19T06:23:33.609Z,23.5
2017-07-19T06:24:35.823Z,23.6
2017-07-19T06:25:38.091Z,23.6
2017-07-19T06:26:40.348Z,23.7
2017-07-19T06:27:42.536Z,23.7
2017-07-19T06:28:44.836Z,23.7
2017-07-19T06:29:47.115Z,23.9
2017-07-19T06:30:49.330Z,23.8
2017-07-19T06:31:51.578Z,23.9
2017-07-19T06:32:53.851Z,23.9
2017-07-19T06:33:56.172Z,24.0
2017-07-19T06:34:58.461Z,24.0
2017-07-19T06:36:00.671Z,24.0
2017-07-19T06:37:02.999Z,24.1
2017-07-19T06:38:05.092Z,24.1
2017-07-19T06:39:07.437Z,24.2
2017-07-19T06:40:09.762Z,24.2
2017-07-19T06:41:12.069Z,24.3
2017-07-19T06:42:14.288Z,24.4
2017-07-19T06:43:16.425Z,24.4
2017-07-19T06:44:18.668Z,24.4
2017-07-19T06:45:20.840Z,24.5
2017-07-19T06:46:23.180Z,24.5
2017-07-19T06:47:25.344Z,24.6
2017-07-19T06:48:27.503Z,24.7
2017-07-19T06:49:29.706Z,24.7
2017-07-19T06:50:31.994Z,24.7
2017-07-19T06:51:34.141Z,24.8
2017-07-19T06:52:36.293Z,24.7
2017-07-19T06:53:38.545Z,24.7
2017-07-19T06:54:40.850Z,24.9
2017-07-19T06:55:43.085Z,24.9
2017-07-19T06:56:45.203Z,25.0
2017-07-19T06:57:47.432Z,25.0
2017-07-19T06:58:49.735Z,25.1
2017-07-19T06:59:51.947Z,25.2
2017-07-19T07:00:54.149Z,25.3
2017-07-19T07:01:56.409Z,25.3
2017-07-19T07:02:58.670Z,25.4
2017-07-19T07:04:00.911Z,25.4
2017-07-19T07:05:03.224Z,25.4
2017-07-19T07:06:05.413Z,25.5
2017-07-19T07:07:07.688Z,25.6
2017-07-19T07:08:10.043Z,25.6
2017-07-19T07:09:12.306Z,25.7
2017-07-19T07:10:14.514Z,25.7
2017-07-19T07:11:16.692Z,25.7
2017-07-19T07:12:18.975Z,25.7
2017-07-19T07:13:21.118Z,25.9
2017-07-19T07:14:23.380Z,26.0
2017-07-19T07:15:25.664Z,26.0
2017-07-19T07:16:27.948Z,26.0
2017-07-19T07:17:30.190Z,26.0
2017-07-19T07:18:32.386Z,26.2
2017-07-19T07:19:34.620Z,26.1
2017-07-19T07:20:36.905Z,26.3
2017-07-19T07:21:39.236Z,26.3
2017-07-19T07:22:41.538Z,26.4
2017-07-19T07:23:43.663Z,26.4
2017-07-19T07:24:45.944Z,26.5
2017-07-19T07:25:48.210Z,26.6
2017-07-19T07:26:50.458Z,26.6
2017-07-19T07:27:52.522Z,26.6
2017-07-19T07:28:54.821Z,26.7
2017-07-19T07:29:57.028Z,26.8
2017-07-19T07:30:59.329Z,26.8
2017-07-19T07:32:01.632Z,26.9
2017-07-19T07:33:03.951Z,26.9
2017-07-19T07:34:06.181Z,27.0
2017-07-19T07:35:08.447Z,27.0
2017-07-19T07:36:10.746Z,27.1
2017-07-19T07:37:13.007Z,27.2
2017-07-19T07:38:15.247Z,27.2
2017-07-19T07:39:17.555Z,27.4
2017-07-19T07:40:19.728Z,27.5
2017-07-19T07:41:21.894Z,27.5
2017-07-19T07:42:24.136Z,27.6
2017-07-19T07:43:26.347Z,27.6
2017-07-19T07:44:28.485Z,27.8
2017-07-19T07:45:30.782Z,28.1
2017-07-19T07:46:33.114Z,29.7
2017-07-19T07:47:35.223Z,32.4
2017-07-19T07:48:37.417Z,35.1
2017-07-19T07:49:39.684Z,36.9
2017-07-19T07:50:41.969Z,38.4
2017-07-19T07:51:44.064Z,39.7
2017-07-19T07:52:46.458Z,40.8
2017-07-19T07:53:48.698Z,41.7
2017-07-19T07:54:50.940Z,42.6
2017-07-19T07:55:53.142Z,43.4
2017-07-19T07:56:55.304Z,44.3
2017-07-19T07:57:57.598Z,45.1
2017-07-19T07:58:59.965Z,45.6
2017-07-19T08:00:02.087Z,46.3
2017-07-19T08:01:04.437Z,46.9
2017-07-19T08:02:06.682Z,47.6
2017-07-19T08:03:08.995Z,48.1
2017-07-19T08:04:11.260Z,48.7
2017-07-19T08:05:13.416Z,49.2
2017-07-19T08:06:15.511Z,49.8
2017-07-19T08:07:17.668Z,50.3
2017-07-19T08:08:19.864Z,50.6
2017-07-19T08:09:22.782Z,50.9
2017-07-19T08:10:25.004Z,51.2
2017-07-19T08:11:27.125Z,51.2
2017-07-19T08:12:29.180Z,51.0
2017-07-19T08:13:31.434Z,50.9
2017-07-19T08:14:33.612Z,51.2
2017-07-19T08:15:35.875Z,51.6
2017-07-19T08:16:38.089Z,51.9
2017-07-19T08:17:40.307Z,52.2
2017-07-19T08:18:42.511Z,52.5
2017-07-19T08:19:44.652Z,52.8
2017-07-19T08:20:46.873Z,53.1
2017-07-19T08:21:49.039Z,53.3
2017-07-19T08:22:51.174Z,53.7
2017-07-19T08:23:53.427Z,53.7
2017-07-19T08:24:55.664Z,54.1
2017-07-19T08:25:57.890Z,54.5
2017-07-19T08:27:00.177Z,55.0
2017-07-19T08:28:02.430Z,55.0
2017-07-19T08:29:04.610Z,55.0
2017-07-19T08:30:06.720Z,55.2
2017-07-19T08:31:08.975Z,55.1
2017-07-19T08:32:11.279Z,55.1
2017-07-19T08:33:13.495Z,55.3
2017-07-19T08:34:15.583Z,55.2
2017-07-19T08:35:17.790Z,55.0
2017-07-19T08:36:20.015Z,54.8
2017-07-19T08:37:22.236Z,54.8
2017-07-19T08:38:24.449Z,54.8
2017-07-19T08:39:26.629Z,54.9
2017-07-19T08:40:29.033Z,54.8
2017-07-19T08:41:31.330Z,55.0
2017-07-19T08:42:33.586Z,55.1
2017-07-19T08:43:35.864Z,55.3
2017-07-19T08:44:38.106Z,55.3
2017-07-19T08:45:40.364Z,55.1
2017-07-19T08:46:42.660Z,55.1
2017-07-19T08:47:44.852Z,55.3
2017-07-19T08:48:47.113Z,55.4
2017-07-19T08:49:49.222Z,55.5
2017-07-19T08:50:51.484Z,55.7
2017-07-19T08:51:53.851Z,55.7
2017-07-19T08:52:55.864Z,55.5
2017-07-19T08:53:58.145Z,55.3
2017-07-19T08:55:00.406Z,55.0
2017-07-19T08:56:02.683Z,55.0
2017-07-19T08:57:04.922Z,54.8
2017-07-19T08:58:07.197Z,54.6
2017-07-19T08:59:09.311Z,54.4
2017-07-19T09:00:11.614Z,54.0
2017-07-19T09:01:13.876Z,54.0
2017-07-19T09:02:16.014Z,54.1
2017-07-19T09:03:18.325Z,54.3
2017-07-19T09:04:20.398Z,54.4
2017-07-19T09:05:22.653Z,54.3
2017-07-19T09:06:24.891Z,54.4
2017-07-19T09:07:27.078Z,54.4
2017-07-19T09:08:29.250Z,54.4
2017-07-19T09:09:31.423Z,54.6
2017-07-19T09:10:33.639Z,54.7
2017-07-19T09:11:35.737Z,54.9
2017-07-19T09:12:37.946Z,55.0
2017-07-19T09:13:40.137Z,54.9
2017-07-19T09:14:42.373Z,54.7
2017-07-19T09:15:44.541Z,54.5
2017-07-19T09:16:46.820Z,54.4
2017-07-19T09:17:49.047Z,54.5
2017-07-19T09:18:51.309Z,54.7
2017-07-19T09:19:53.472Z,54.7
2017-07-19T09:20:55.661Z,54.5
2017-07-19T09:21:57.867Z,54.2
2017-07-19T09:23:00.065Z,54.0
2017-07-19T09:24:02.231Z,54.0
2017-07-19T09:25:04.461Z,53.8
2017-07-19T09:26:06.693Z,53.7
2017-07-19T09:27:08.886Z,53.5
2017-07-19T09:28:11.123Z,53.3
2017-07-19T09:29:13.330Z,53.3
2017-07-19T09:30:15.506Z,53.1
2017-07-19T09:31:17.701Z,53.0
2017-07-19T09:32:19.834Z,52.9
2017-07-19T09:33:22.111Z,52.7
2017-07-19T09:34:24.238Z,52.8
2017-07-19T09:35:26.460Z,53.1
2017-07-19T09:36:28.644Z,53.3
2017-07-19T09:37:30.824Z,53.5
2017-07-19T09:38:33.040Z,53.5
2017-07-19T09:39:35.332Z,53.6
2017-07-19T09:40:37.524Z,53.4
2017-07-19T09:41:39.731Z,53.3
2017-07-19T09:42:42.005Z,53.0
2017-07-19T09:43:44.367Z,52.9
2017-07-19T09:44:46.630Z,53.1
2017-07-19T09:45:48.844Z,53.4
2017-07-19T09:46:50.983Z,53.7
2017-07-19T09:47:53.243Z,54.0
2017-07-19T09:48:55.426Z,54.3
2017-07-19T09:49:57.591Z,54.3
2017-07-19T09:50:59.776Z,54.6
2017-07-19T09:52:02.111Z,54.8
2017-07-19T09:53:04.273Z,55.0
2017-07-19T09:54:06.457Z,55.2
2017-07-19T09:55:08.691Z,55.5
2017-07-19T09:56:10.844Z,55.6
2017-07-19T09:57:13.129Z,55.7
2017-07-19T09:58:15.368Z,55.3
2017-07-19T09:59:17.633Z,54.6
2017-07-19T10:00:19.806Z,54.4
2017-07-19T10:01:22.044Z,54.1
2017-07-19T10:02:24.290Z,54.0
2017-07-19T10:03:26.447Z,53.8
2017-07-19T10:04:28.613Z,53.6
2017-07-19T10:05:30.830Z,53.5
2017-07-19T10:06:33.097Z,53.5
2017-07-19T10:07:35.315Z,53.0
2017-07-19T10:08:37.556Z,53.3
2017-07-19T10:09:39.802Z,53.3
2017-07-19T10:10:42.002Z,53.5
2017-07-19T10:11:44.135Z,53.6
2017-07-19T10:12:46.369Z,53.3
2017-07-19T10:13:48.617Z,53.0
2017-07-19T10:14:50.876Z,52.5
2017-07-19T10:15:53.128Z,51.7
2017-07-19T10:16:55.404Z,51.3
2017-07-19T10:17:57.666Z,51.2
2017-07-19T10:18:59.748Z,51.1
2017-07-19T10:20:01.906Z,51.0
2017-07-19T10:21:04.155Z,50.8
2017-07-19T10:22:06.333Z,50.6
2017-07-19T10:23:08.693Z,50.3
2017-07-19T10:24:10.881Z,50.5
2017-07-19T10:25:13.113Z,50.6
2017-07-19T10:26:15.297Z,50.7
2017-07-19T10:27:17.524Z,50.7
2017-07-19T10:28:19.763Z,50.3
2017-07-19T10:29:22.035Z,50.6
2017-07-19T10:30:24.201Z,50.6
2017-07-19T10:31:26.363Z,50.6
2017-07-19T10:32:28.567Z,50.5
2017-07-19T10:33:30.910Z,50.4
2017-07-19T10:34:33.174Z,50.5
2017-07-19T10:35:35.388Z,50.5
2017-07-19T10:36:37.597Z,50.4
2017-07-19T10:37:39.846Z,50.4
2017-07-19T10:38:41.998Z,50.3
2017-07-19T10:39:44.129Z,50.3
2017-07-19T10:40:46.351Z,50.3
2017-07-19T10:41:48.604Z,50.1
2017-07-19T10:42:50.790Z,49.9
2017-07-19T10:43:53.025Z,49.9
2017-07-19T10:44:55.272Z,49.7
2017-07-19T10:45:57.479Z,49.5
2017-07-19T10:46:59.739Z,49.3
2017-07-19T10:48:02.000Z,49.2
2017-07-19T10:49:04.235Z,49.0
2017-07-19T10:50:06.440Z,48.7
2017-07-19T10:51:08.661Z,48.3
2017-07-19T10:52:10.843Z,48.1
2017-07-19T10:53:13.114Z,47.7
2017-07-19T10:54:15.383Z,47.4
2017-07-19T10:55:17.657Z,47.3
2017-07-19T10:56:20.052Z,46.9
2017-07-19T10:57:22.311Z,46.6
2017-07-19T10:58:24.476Z,46.4
2017-07-19T10:59:26.818Z,46.5
2017-07-19T11:00:29.141Z,46.5
2017-07-19T11:01:31.424Z,46.6
2017-07-19T11:02:33.631Z,46.7
2017-07-19T11:03:35.932Z,46.6
2017-07-19T11:04:38.166Z,46.4
2017-07-19T11:05:40.346Z,46.1
2017-07-19T11:06:42.645Z,45.7
2017-07-19T11:07:44.882Z,45.4
2017-07-19T11:08:47.056Z,45.3
2017-07-19T11:09:49.222Z,45.3
2017-07-19T11:10:51.448Z,45.3
2017-07-19T11:11:53.859Z,45.2
2017-07-19T11:12:55.991Z,45.0
2017-07-19T11:13:58.181Z,44.7
2017-07-19T11:15:00.478Z,44.5
2017-07-19T11:16:02.678Z,44.4
2017-07-19T11:17:04.888Z,44.3
2017-07-19T11:18:07.159Z,44.5
2017-07-19T11:19:09.342Z,44.6
2017-07-19T11:20:11.581Z,44.7
2017-07-19T11:21:13.725Z,44.9
2017-07-19T11:22:16.006Z,45.0
2017-07-19T11:23:18.250Z,45.3
2017-07-19T11:24:20.445Z,45.2
2017-07-19T11:25:22.722Z,45.0
2017-07-19T11:26:24.937Z,45.0
2017-07-19T11:27:27.142Z,44.7
2017-07-19T11:28:29.429Z,44.4
2017-07-19T11:29:31.626Z,44.3
2017-07-19T11:30:33.891Z,44.1
2017-07-19T11:31:36.042Z,43.9
2017-07-19T11:32:38.254Z,43.6
2017-07-19T11:33:40.582Z,43.5
2017-07-19T11:34:42.768Z,43.5
2017-07-19T11:35:44.975Z,43.4
2017-07-19T11:36:47.212Z,43.3
2017-07-19T11:37:49.497Z,43.2
2017-07-19T11:38:51.713Z,43.0
2017-07-19T11:39:54.008Z,43.0
2017-07-19T11:40:56.232Z,42.9
2017-07-19T11:41:58.441Z,42.6
2017-07-19T11:43:00.614Z,42.4
2017-07-19T11:44:02.874Z,42.3
2017-07-19T11:45:05.054Z,42.2
2017-07-19T11:46:07.313Z,42.2
2017-07-19T11:47:09.568Z,42.0
2017-07-19T11:48:11.761Z,42.0
2017-07-19T11:49:14.111Z,42.2
2017-07-19T11:50:16.252Z,42.3
2017-07-19T11:51:18.423Z,42.2
2017-07-19T11:52:20.650Z,42.1
2017-07-19T11:53:22.905Z,42.0
2017-07-19T11:54:25.217Z,41.9
2017-07-19T11:55:27.518Z,41.7
2017-07-19T11:56:29.824Z,41.8
2017-07-19T11:57:32.064Z,41.9
2017-07-19T11:58:34.237Z,41.9
2017-07-19T11:59:36.505Z,42.0
2017-07-19T12:00:38.783Z,41.9
2017-07-19T12:01:40.992Z,41.7
2017-07-19T12:02:43.281Z,41.7
2017-07-19T12:03:45.480Z,41.5
2017-07-19T12:04:47.683Z,41.4
2017-07-19T12:05:49.853Z,41.3
2017-07-19T12:06:52.109Z,41.1
2017-07-19T12:07:54.411Z,41.0
2017-07-19T12:08:56.732Z,40.9
2017-07-19T12:09:59.037Z,40.8
2017-07-19T12:11:01.288Z,40.5
2017-07-19T12:12:03.458Z,40.5
2017-07-19T12:13:05.652Z,40.3
2017-07-19T12:14:07.888Z,40.2
2017-07-19T12:15:10.106Z,40.1
2017-07-19T12:16:12.292Z,40.0
2017-07-19T12:17:14.494Z,39.8
2017-07-19T12:18:16.704Z,39.7
2017-07-19T12:19:18.941Z,39.9
2017-07-19T12:20:21.183Z,40.0
2017-07-19T12:21:23.399Z,40.0
2017-07-19T12:22:25.747Z,40.0
2017-07-19T12:23:27.969Z,40.0
2017-07-19T12:24:30.143Z,40.3
2017-07-19T12:25:32.385Z,40.4
2017-07-19T12:26:34.699Z,40.3
2017-07-19T12:27:37.000Z,40.3
2017-07-19T12:28:39.244Z,40.3
2017-07-19T12:29:41.542Z,40.3
2017-07-19T12:30:43.764Z,40.3
2017-07-19T12:31:46.005Z,40.3
2017-07-19T12:32:48.222Z,40.4
2017-07-19T12:33:50.464Z,40.5
2017-07-19T12:34:52.699Z,40.5
2017-07-19T12:35:54.981Z,40.5
2017-07-19T12:36:57.199Z,40.5
2017-07-19T12:37:59.378Z,40.4
2017-07-19T12:39:01.672Z,40.5
2017-07-19T12:40:03.839Z,40.4
2017-07-19T12:41:06.073Z,40.4
2017-07-19T12:42:08.308Z,40.3
2017-07-19T12:43:10.540Z,40.3
2017-07-19T12:44:12.735Z,40.0
2017-07-19T12:45:14.988Z,40.0
2017-07-19T12:46:17.162Z,39.8
2017-07-19T12:47:19.394Z,39.9
2017-07-19T12:48:21.605Z,39.8
2017-07-19T12:49:23.833Z,39.8
2017-07-19T12:50:25.992Z,39.8
2017-07-19T12:51:28.160Z,39.8
2017-07-19T12:52:30.444Z,39.6
2017-07-19T12:53:32.645Z,39.6
2017-07-19T12:54:34.953Z,39.5
2017-07-19T12:55:37.321Z,39.3
2017-07-19T12:56:39.605Z,39.1
2017-07-19T12:57:41.793Z,38.9
2017-07-19T12:58:44.087Z,38.7
2017-07-19T12:59:46.309Z,38.6
2017-07-19T13:00:48.553Z,38.5
2017-07-19T13:01:50.796Z,38.4
2017-07-19T13:02:52.984Z,38.2
2017-07-19T13:03:55.177Z,38.1
2017-07-19T13:04:57.476Z,38.0
2017-07-19T13:05:59.705Z,38.0
2017-07-19T13:07:01.962Z,38.0
2017-07-19T13:08:04.201Z,37.9
2017-07-19T13:09:06.449Z,37.9
2017-07-19T13:10:08.688Z,38.0
2017-07-19T13:11:10.897Z,38.0
2017-07-19T13:12:13.155Z,38.1
2017-07-19T13:13:15.349Z,38.1
2017-07-19T13:14:17.704Z,38.3
2017-07-19T13:15:19.983Z,38.4
2017-07-19T13:16:22.223Z,38.4
2017-07-19T13:17:24.316Z,38.5
2017-07-19T13:18:26.606Z,38.5
2017-07-19T13:19:28.875Z,38.6
2017-07-19T13:20:31.135Z,38.6
2017-07-19T13:21:33.400Z,38.6
2017-07-19T13:22:35.644Z,38.6
2017-07-19T13:23:37.793Z,38.6
2017-07-19T13:24:40.089Z,38.7
2017-07-19T13:25:42.340Z,38.7
2017-07-19T13:26:44.648Z,38.8
2017-07-19T13:27:46.894Z,38.9
2017-07-19T13:28:49.115Z,39.0
2017-07-19T13:29:51.389Z,39.1
2017-07-19T13:30:53.629Z,39.0
2017-07-19T13:31:55.930Z,38.9
2017-07-19T13:32:58.189Z,38.9
2017-07-19T13:34:00.387Z,39.0
2017-07-19T13:35:02.699Z,39.0
2017-07-19T13:36:04.893Z,39.1
2017-07-19T13:37:07.188Z,39.1
2017-07-19T13:38:09.409Z,39.1
2017-07-19T13:39:11.610Z,39.2
2017-07-19T13:40:13.876Z,39.1
2017-07-19T13:41:16.126Z,39.2
2017-07-19T13:42:18.266Z,39.2
2017-07-19T13:43:20.608Z,39.3
2017-07-19T13:44:22.801Z,39.3
2017-07-19T13:45:25.038Z,39.2
2017-07-19T13:46:27.113Z,39.2
2017-07-19T13:47:29.361Z,39.3